createdAt,value
2022-12-01T00:00:16.078Z,54.6
2022-12-01T00:05:16.038Z,54.6
2022-12-01T00:10:16.116Z,54.6
2022-12-01T00:15:16.057Z,54.6
2022-12-01T00:20:16.071Z,54.8
2022-12-01T00:25:16.102Z,54.9
2022-12-01T00:30:16.178Z,54.9
2022-12-01T00:35:16.057Z,54.8
2022-12-01T00:40:16.208Z,55.0
2022-12-01T00:45:16.135Z,55.2
2022-12-01T00:50:16.194Z,55.4
2022-12-01T00:55:16.169Z,55.3
2022-12-01T01:00:16.186Z,55.5
2022-12-01T01:05:16.284Z,55.6
2022-12-01T01:10:16.437Z,55.8
2022-12-01T01:15:16.177Z,55.8
2022-12-01T01:20:16.304Z,55.6
2022-12-01T01:25:16.309Z,55.5
2022-12-01T01:30:16.204Z,55.5
2022-12-01T01:35:16.237Z,52.1
2022-12-01T01:40:16.249Z,50.2
2022-12-01T01:45:16.312Z,49.4
2022-12-01T01:50:16.278Z,49.1
2022-12-01T01:55:16.205Z,48.9
2022-12-01T02:00:16.236Z,48.6
2022-12-01T02:05:16.310Z,48.5
2022-12-01T02:10:16.297Z,48.4
2022-12-01T02:15:16.336Z,48.4
2022-12-01T02:20:16.296Z,48.3
2022-12-01T02:25:16.311Z,48.2
2022-12-01T02:30:16.336Z,48.1
2022-12-01T02:35:16.288Z,48.0
2022-12-01T02:40:16.269Z,47.8
2022-12-01T02:45:16.380Z,47.7
2022-12-01T02:50:16.331Z,47.6
2022-12-01T02:55:16.318Z,47.6
2022-12-01T03:00:16.430Z,47.6
2022-12-01T03:05:16.334Z,47.3
2022-12-01T03:10:16.436Z,47.2
2022-12-01T03:15:16.455Z,47.3
2022-12-01T03:20:16.489Z,47.2
2022-12-01T03:25:16.398Z,47.3
2022-12-01T03:30:16.419Z,47.3
2022-12-01T03:35:16.459Z,47.2
2022-12-01T03:40:16.518Z,47.2
2022-12-01T03:45:16.549Z,47.0
2022-12-01T03:50:16.465Z,46.7
2022-12-01T03:55:16.611Z,46.0
2022-12-01T04:00:16.410Z,45.8
2022-12-01T04:05:19.911Z,45.4
2022-12-01T04:10:16.603Z,45.5
2022-12-01T04:15:16.610Z,45.2
2022-12-01T04:20:17.508Z,44.9
2022-12-01T04:25:16.544Z,44.5
2022-12-01T04:30:16.571Z,44.3
2022-12-01T04:35:16.610Z,44.2
2022-12-01T04:40:16.523Z,44.0
2022-12-01T04:45:16.701Z,44.0
2022-12-01T04:50:16.773Z,43.9
2022-12-01T04:55:16.545Z,43.7
2022-12-01T05:00:15.640Z,43.7
2022-12-01T05:05:15.899Z,43.5
2022-12-01T05:10:15.662Z,43.2
2022-12-01T05:15:15.670Z,42.9
2022-12-01T05:20:15.640Z,42.7
2022-12-01T05:25:15.696Z,42.7
2022-12-01T05:30:15.679Z,42.6
2022-12-01T05:35:15.663Z,42.6
2022-12-01T05:40:15.728Z,42.7
2022-12-01T05:45:15.736Z,42.8
2022-12-01T05:50:15.928Z,42.8
2022-12-01T05:55:15.607Z,43.0
2022-12-01T06:00:15.694Z,43.0
2022-12-01T06:05:15.894Z,42.8
2022-12-01T06:10:15.864Z,42.7
2022-12-01T06:15:16.033Z,42.6
2022-12-01T06:20:15.863Z,42.7
2022-12-01T06:25:15.989Z,42.8
2022-12-01T06:30:15.766Z,42.6
2022-12-01T06:35:15.923Z,42.5
2022-12-01T06:40:15.834Z,42.4
2022-12-01T06:45:15.809Z,42.3
2022-12-01T06:50:15.869Z,42.1
2022-12-01T06:55:15.874Z,42.0
2022-12-01T07:00:15.914Z,41.7
2022-12-01T07:05:15.894Z,41.6
2022-12-01T07:10:15.823Z,41.5
2022-12-01T07:15:15.894Z,41.4
2022-12-01T07:20:16.027Z,41.4
2022-12-01T07:25:15.939Z,41.2
2022-12-01T07:30:15.948Z,41.1
2022-12-01T07:35:15.918Z,40.8
2022-12-01T07:40:16.008Z,40.4
2022-12-01T07:45:15.937Z,40.4
2022-12-01T07:50:15.936Z,40.3
2022-12-01T07:55:15.961Z,40.4
2022-12-01T08:00:16.104Z,40.4
2022-12-01T08:05:16.086Z,40.2
2022-12-01T08:10:15.975Z,40.1
2022-12-01T08:15:16.052Z,40.0
2022-12-01T08:20:20.824Z,39.9
2022-12-01T08:25:16.106Z,39.7
2022-12-01T08:30:16.009Z,39.6
2022-12-01T08:35:16.125Z,39.4
2022-12-01T08:40:16.104Z,39.3
2022-12-01T08:45:16.053Z,39.2
2022-12-01T08:50:16.118Z,39.1
2022-12-01T08:55:16.105Z,39.0
2022-12-01T09:00:16.128Z,38.9
2022-12-01T09:05:16.336Z,38.8
2022-12-01T09:10:16.476Z,38.8
2022-12-01T09:15:16.115Z,38.8
2022-12-01T09:20:16.225Z,38.7
2022-12-01T09:25:16.182Z,38.6
2022-12-01T09:30:16.225Z,38.6
2022-12-01T09:35:20.767Z,38.6
2022-12-01T09:40:16.386Z,38.5
2022-12-01T09:45:16.425Z,38.3
2022-12-01T09:50:16.242Z,38.4
2022-12-01T09:55:16.169Z,38.2
2022-12-01T10:00:16.214Z,38.2
2022-12-01T10:05:16.373Z,38.2
2022-12-01T10:10:16.315Z,38.2
2022-12-01T10:15:16.328Z,38.2
2022-12-01T10:20:16.797Z,38.0
2022-12-01T10:25:16.243Z,38.0
2022-12-01T10:30:16.488Z,37.9
2022-12-01T10:35:16.308Z,37.9
2022-12-01T10:40:16.317Z,37.7
2022-12-01T10:45:16.359Z,37.6
2022-12-01T10:50:16.433Z,37.4
2022-12-01T10:55:16.549Z,37.2
2022-12-01T11:00:42.965Z,37.0
2022-12-01T11:05:16.377Z,36.9
2022-12-01T11:10:16.429Z,36.7
2022-12-01T11:15:16.370Z,36.6
2022-12-01T11:20:16.610Z,36.4
2022-12-01T11:25:16.446Z,36.3
2022-12-01T11:30:16.451Z,36.1
2022-12-01T11:35:16.448Z,35.9
2022-12-01T11:40:16.574Z,35.8
2022-12-01T11:45:16.508Z,35.7
2022-12-01T11:50:16.572Z,35.6
2022-12-01T11:55:16.419Z,35.6
2022-12-01T12:00:16.504Z,35.7
2022-12-01T12:05:16.515Z,35.7
2022-12-01T12:10:16.547Z,35.7
2022-12-01T12:15:16.498Z,35.7
2022-12-01T12:20:17.202Z,35.6
2022-12-01T12:25:16.645Z,35.7
2022-12-01T12:30:16.597Z,35.8
2022-12-01T12:35:16.733Z,35.9
2022-12-01T12:40:16.691Z,36.1
2022-12-01T12:45:16.546Z,36.3
2022-12-01T12:50:16.724Z,36.5
2022-12-01T12:55:16.569Z,36.6
2022-12-01T13:00:16.715Z,36.8
2022-12-01T13:05:16.618Z,36.9
2022-12-01T13:10:16.599Z,37.2
2022-12-01T13:15:16.609Z,37.4
2022-12-01T13:20:16.682Z,37.5
2022-12-01T13:25:16.777Z,37.7
2022-12-01T13:30:16.746Z,37.8
2022-12-01T13:35:16.674Z,37.9
2022-12-01T13:40:16.758Z,38.0
2022-12-01T13:45:17.065Z,38.1
2022-12-01T13:50:16.780Z,38.2
2022-12-01T13:55:16.679Z,38.3
2022-12-01T14:00:16.813Z,38.3
2022-12-01T14:05:16.783Z,38.4
2022-12-01T14:10:16.702Z,38.5
2022-12-01T14:15:16.899Z,38.7
2022-12-01T14:20:16.767Z,38.9
2022-12-01T14:25:16.783Z,38.9
2022-12-01T14:30:16.785Z,39.0
2022-12-01T14:35:16.810Z,39.0
2022-12-01T14:40:16.894Z,39.1
2022-12-01T14:45:17.019Z,39.2
2022-12-01T14:50:16.833Z,39.3
2022-12-01T14:55:17.179Z,39.3
2022-12-01T15:00:16.976Z,39.5
2022-12-01T15:05:16.879Z,39.4
2022-12-01T15:10:17.018Z,39.5
2022-12-01T15:15:19.816Z,39.5
2022-12-01T15:20:17.017Z,39.6
2022-12-01T15:25:17.268Z,39.6
2022-12-01T15:30:16.932Z,39.7
2022-12-01T15:35:17.040Z,39.7
2022-12-01T15:41:06.218Z,40.0
2022-12-01T15:41:30.670Z,40.0
2022-12-01T15:45:16.919Z,40.1
2022-12-01T15:50:17.020Z,40.1
2022-12-01T15:55:17.041Z,40.3
2022-12-01T16:00:17.077Z,40.5
2022-12-01T16:05:17.060Z,40.6
2022-12-01T16:10:17.079Z,40.8
2022-12-01T16:15:17.097Z,40.9
2022-12-01T16:20:17.077Z,41.1
2022-12-01T16:25:17.050Z,41.2
2022-12-01T16:30:17.163Z,41.2
2022-12-01T16:35:17.070Z,41.3
2022-12-01T16:40:17.230Z,41.6
2022-12-01T16:45:17.139Z,41.5
2022-12-01T16:50:17.140Z,41.4
2022-12-01T16:55:17.107Z,41.4
2022-12-01T17:00:17.132Z,41.5
2022-12-01T17:05:17.097Z,41.6
2022-12-01T17:10:17.342Z,42.1
2022-12-01T17:15:17.139Z,42.4
2022-12-01T17:20:17.193Z,42.4
2022-12-01T17:25:17.221Z,42.3
2022-12-01T17:30:17.267Z,42.0
2022-12-01T17:35:17.243Z,41.9
2022-12-01T17:40:17.316Z,41.6
2022-12-01T17:45:17.314Z,41.6
2022-12-01T17:50:17.257Z,41.6
2022-12-01T17:55:17.218Z,41.6
2022-12-01T18:00:17.240Z,41.5
2022-12-01T18:05:17.439Z,41.5
2022-12-01T18:10:17.553Z,41.6
2022-12-01T18:15:17.297Z,41.7
2022-12-01T18:20:17.392Z,41.7
2022-12-01T18:25:17.258Z,41.6
2022-12-01T18:30:17.290Z,41.5
2022-12-01T18:35:17.591Z,41.4
2022-12-01T18:40:17.280Z,41.5
2022-12-01T18:45:21.027Z,41.6
2022-12-01T18:50:17.357Z,41.6
2022-12-01T18:55:17.372Z,41.7
2022-12-01T19:00:17.452Z,41.8
2022-12-01T19:05:17.379Z,42.0
2022-12-01T19:10:15.487Z,42.1
2022-12-01T19:15:15.589Z,42.0
2022-12-01T19:20:15.380Z,41.8
2022-12-01T19:25:15.522Z,41.9
2022-12-01T19:30:15.494Z,41.7
2022-12-01T19:35:15.584Z,41.5
2022-12-01T19:40:15.423Z,41.3
2022-12-01T19:45:15.451Z,41.2
2022-12-01T19:50:15.573Z,41.2
2022-12-01T19:55:15.366Z,41.3
2022-12-01T20:00:15.445Z,41.3
2022-12-01T20:05:15.517Z,41.3
2022-12-01T20:10:15.583Z,41.3
2022-12-01T20:15:15.468Z,41.2
2022-12-01T20:20:15.665Z,41.1
2022-12-01T20:25:15.496Z,41.1
2022-12-01T20:30:15.558Z,41.1
2022-12-01T20:35:15.507Z,41.0
2022-12-01T20:40:15.747Z,40.9
2022-12-01T20:45:15.619Z,40.8
2022-12-01T20:50:15.616Z,40.8
2022-12-01T20:55:15.623Z,40.8
2022-12-01T21:00:15.775Z,40.7
2022-12-01T21:05:15.723Z,40.6
2022-12-01T21:10:19.820Z,40.4
2022-12-01T21:15:15.720Z,40.3
2022-12-01T21:20:15.699Z,40.2
2022-12-01T21:25:15.696Z,40.2
2022-12-01T21:30:15.754Z,40.2
2022-12-01T21:35:15.712Z,40.2
2022-12-01T21:40:15.761Z,40.2
2022-12-01T21:45:15.704Z,40.1
2022-12-01T21:50:16.057Z,40.0
2022-12-01T21:55:15.714Z,39.8
2022-12-01T22:00:15.741Z,39.8
2022-12-01T22:05:15.962Z,39.7
2022-12-01T22:10:15.739Z,39.8
2022-12-01T22:15:15.943Z,39.7
2022-12-01T22:20:15.868Z,39.8
2022-12-01T22:25:15.917Z,39.9
2022-12-01T22:30:15.875Z,40.2
2022-12-01T22:35:15.802Z,40.0
2022-12-01T22:40:15.845Z,40.0
2022-12-01T22:45:16.078Z,40.0
2022-12-01T22:50:15.819Z,40.0
2022-12-01T22:55:16.509Z,40.1
2022-12-01T23:00:15.898Z,40.2
2022-12-01T23:05:15.961Z,40.2
2022-12-01T23:10:15.900Z,40.2
2022-12-01T23:15:15.873Z,40.1
2022-12-01T23:20:15.899Z,40.0
2022-12-01T23:25:15.957Z,39.8
2022-12-01T23:30:15.984Z,39.7
2022-12-01T23:35:15.993Z,39.5
2022-12-01T23:40:16.096Z,39.5
2022-12-01T23:45:16.222Z,39.3
2022-12-01T23:50:16.073Z,39.3
2022-12-01T23:55:15.959Z,39.1
